createdAt,value
2019-04-26T00:06:45.715Z,1.60
2019-04-26T00:17:45.569Z,2.30
2019-04-26T00:28:45.473Z,3.00
2019-04-26T00:39:45.342Z,2.30
2019-04-26T00:50:45.194Z,1.50
2019-04-26T01:01:45.935Z,1.50
2019-04-26T01:12:44.955Z,1.90
2019-04-26T01:23:44.819Z,1.70
2019-04-26T01:34:44.693Z,1.80
2019-04-26T01:45:44.586Z,1.80
2019-04-26T01:56:44.448Z,1.50
2019-04-26T02:07:44.321Z,2.00
2019-04-26T02:18:44.204Z,2.10
2019-04-26T02:29:44.072Z,2.00
2019-04-26T02:40:44.075Z,1.60
2019-04-26T02:51:43.844Z,2.10
2019-04-26T03:02:43.718Z,1.50
2019-04-26T03:13:43.877Z,1.80
2019-04-26T03:24:44.449Z,2.30
2019-04-26T03:35:55.310Z,2.30
2019-04-26T03:46:45.166Z,2.10
2019-04-26T03:57:44.846Z,2.80
2019-04-26T04:08:45.979Z,1.90
2019-04-26T04:19:43.970Z,2.00
2019-04-26T04:30:45.438Z,2.00
2019-04-26T04:41:42.982Z,2.10
2019-04-26T04:52:43.220Z,2.20
2019-04-26T05:03:43.450Z,2.50
2019-04-26T05:14:42.202Z,2.50
2019-04-26T05:25:42.096Z,3.50
2019-04-26T05:36:41.998Z,2.90
2019-04-26T05:47:41.845Z,4.10
2019-04-26T05:58:41.726Z,3.40
2019-04-26T06:09:41.592Z,3.30
2019-04-26T06:20:41.464Z,3.40
2019-04-26T06:31:42.356Z,4.20
2019-04-26T06:42:41.207Z,4.00
2019-04-26T06:53:41.074Z,4.30
2019-04-26T07:04:40.948Z,6.60
2019-04-26T07:15:40.840Z,3.50
2019-04-26T07:26:40.698Z,4.00
2019-04-26T07:37:40.615Z,5.80
2019-04-26T07:48:40.463Z,3.10
2019-04-26T07:59:40.334Z,8.00
2019-04-26T08:10:40.223Z,5.80
2019-04-26T08:21:42.484Z,3.80
2019-04-26T08:32:39.953Z,4.10
2019-04-26T08:43:39.829Z,2.70
2019-04-26T08:54:39.719Z,3.50
2019-04-26T09:05:39.589Z,5.00
2019-04-26T09:16:49.868Z,2.70
2019-04-26T09:27:39.332Z,2.50
2019-04-26T09:38:39.201Z,3.80
2019-04-26T09:49:41.149Z,4.40
2019-04-26T10:00:39.952Z,2.20
2019-04-26T10:11:39.540Z,2.40
2019-04-26T10:22:38.720Z,2.40
2019-04-26T10:33:38.576Z,3.00
2019-04-26T10:44:39.822Z,2.10
2019-04-26T10:55:39.326Z,2.30
2019-04-26T11:06:38.203Z,2.70
2019-04-26T11:17:38.093Z,1.90
2019-04-26T11:28:37.962Z,2.90
2019-04-26T11:39:40.514Z,1.90
2019-04-26T11:50:37.702Z,2.40
2019-04-26T12:01:40.428Z,1.90
2019-04-26T12:12:37.459Z,1.90
2019-04-26T12:23:37.335Z,2.50
2019-04-26T12:34:37.212Z,2.10
2019-04-26T12:45:37.078Z,2.40
2019-04-26T12:56:36.953Z,1.50
2019-04-26T13:07:39.011Z,1.60
2019-04-26T13:18:41.140Z,2.60
2019-04-26T13:29:36.596Z,3.80
2019-04-26T13:40:36.466Z,2.90
2019-04-26T13:51:36.336Z,3.30
2019-04-26T14:02:36.211Z,3.30
2019-04-26T14:13:36.120Z,3.10
2019-04-26T14:24:35.967Z,2.70
2019-04-26T14:35:35.904Z,2.50
2019-04-26T14:46:47.967Z,2.60
2019-04-26T14:57:35.742Z,2.30
2019-04-26T15:08:35.525Z,2.50
2019-04-26T15:19:36.333Z,2.20
2019-04-26T15:30:43.265Z,1.50
2019-04-26T15:41:35.101Z,2.10
2019-04-26T15:52:35.628Z,2.10
2019-04-26T16:03:36.872Z,2.10
2019-04-26T16:14:36.828Z,2.30
2019-04-26T16:25:38.251Z,2.40
2019-04-26T16:36:36.498Z,2.90
2019-04-26T16:47:35.307Z,2.40
2019-04-26T16:58:38.656Z,2.20
2019-04-26T17:09:54.787Z,2.70
2019-04-26T17:20:34.105Z,3.40
2019-04-26T17:31:33.959Z,2.60
2019-04-26T17:42:36.396Z,3.20
2019-04-26T17:53:34.603Z,2.50
2019-04-26T18:04:37.384Z,3.20
2019-04-26T18:15:35.539Z,2.30
2019-04-26T18:26:33.251Z,3.20
2019-04-26T18:37:36.450Z,2.80
2019-04-26T18:48:35.218Z,3.90
2019-04-26T18:59:34.238Z,3.60
2019-04-26T19:10:34.369Z,3.40
2019-04-26T19:21:38.998Z,3.70
2019-04-26T19:32:35.482Z,4.00
2019-04-26T19:43:35.239Z,4.00
2019-04-26T19:54:37.052Z,3.50
2019-04-26T20:05:36.367Z,4.00
2019-04-26T20:16:32.461Z,3.60
2019-04-26T20:27:32.435Z,3.10
2019-04-26T20:38:36.190Z,3.00
2019-04-26T20:49:32.603Z,3.20
2019-04-26T21:00:31.748Z,3.00
2019-04-26T21:11:37.190Z,2.60
2019-04-26T21:22:31.760Z,3.20
2019-04-26T21:33:35.388Z,3.10
2019-04-26T21:44:31.976Z,3.10
2019-04-26T21:55:35.414Z,2.90
2019-04-26T22:06:30.727Z,3.30
2019-04-26T22:17:36.544Z,3.50
2019-04-26T22:28:31.331Z,3.10
2019-04-26T22:39:34.533Z,3.20
2019-04-26T22:50:30.273Z,4.00
2019-04-26T23:01:30.130Z,4.50
2019-04-26T23:12:30.006Z,5.90
2019-04-26T23:23:30.890Z,6.30
2019-04-26T23:34:29.749Z,6.10
2019-04-26T23:45:29.614Z,7.20
2019-04-26T23:56:29.479Z,5.00
